sensor_id;sensor_type;location;lat;lon;timestamp;P1;durP1;ratioP1;P2;durP2;ratioP2
12921;SDS011;6528;48.086;16.282;2022-10-26T00:01:59;1.90;;;1.80;;
12921;SDS011;6528;48.086;16.282;2022-10-26T00:04:25;2.00;;;1.90;;
12921;SDS011;6528;48.086;16.282;2022-10-26T00:06:52;1.50;;;1.40;;
12921;SDS011;6528;48.086;16.282;2022-10-26T00:09:19;1.60;;;1.50;;
12921;SDS011;6528;48.086;16.282;2022-10-26T00:11:45;1.83;;;1.73;;
12921;SDS011;6528;48.086;16.282;2022-10-26T00:14:12;1.53;;;1.43;;
12921;SDS011;6528;48.086;16.282;2022-10-26T00:16:39;1.23;;;1.13;;
12921;SDS011;6528;48.086;16.282;2022-10-26T00:19:06;1.70;;;1.60;;
12921;SDS011;6528;48.086;16.282;2022-10-26T00:21:32;1.33;;;1.20;;
12921;SDS011;6528;48.086;16.282;2022-10-26T00:23:59;1.90;;;1.80;;
12921;SDS011;6528;48.086;16.282;2022-10-26T00:26:26;1.50;;;1.40;;
12921;SDS011;6528;48.086;16.282;2022-10-26T00:28:53;1.80;;;1.70;;
12921;SDS011;6528;48.086;16.282;2022-10-26T00:31:22;2.23;;;2.13;;
12921;SDS011;6528;48.086;16.282;2022-10-26T00:33:53;1.63;;;1.53;;
12921;SDS011;6528;48.086;16.282;2022-10-26T00:36:21;1.80;;;1.70;;
12921;SDS011;6528;48.086;16.282;2022-10-26T00:38:49;1.50;;;1.40;;
12921;SDS011;6528;48.086;16.282;2022-10-26T00:41:18;1.53;;;1.43;;
12921;SDS011;6528;48.086;16.282;2022-10-26T00:43:50;3.80;;;1.73;;
12921;SDS011;6528;48.086;16.282;2022-10-26T00:46:21;2.20;;;1.40;;
12921;SDS011;6528;48.086;16.282;2022-10-26T00:48:55;1.60;;;1.50;;
12921;SDS011;6528;48.086;16.282;2022-10-26T00:51:31;1.47;;;1.37;;
12921;SDS011;6528;48.086;16.282;2022-10-26T00:54:02;2.23;;;1.50;;
12921;SDS011;6528;48.086;16.282;2022-10-26T00:56:32;2.00;;;1.30;;
12921;SDS011;6528;48.086;16.282;2022-10-26T00:59:01;1.40;;;1.30;;
12921;SDS011;6528;48.086;16.282;2022-10-26T01:01:32;1.30;;;1.20;;
12921;SDS011;6528;48.086;16.282;2022-10-26T01:04:00;1.27;;;1.20;;
12921;SDS011;6528;48.086;16.282;2022-10-26T01:06:27;1.37;;;1.27;;
12921;SDS011;6528;48.086;16.282;2022-10-26T01:08:56;1.43;;;1.30;;
12921;SDS011;6528;48.086;16.282;2022-10-26T01:11:23;1.70;;;1.60;;
12921;SDS011;6528;48.086;16.282;2022-10-26T01:13:50;1.20;;;1.20;;
12921;SDS011;6528;48.086;16.282;2022-10-26T01:16:25;1.30;;;1.20;;
12921;SDS011;6528;48.086;16.282;2022-10-26T01:22:20;1.70;;;1.47;;
12921;SDS011;6528;48.086;16.282;2022-10-26T01:27:49;1.53;;;1.43;;
12921;SDS011;6528;48.086;16.282;2022-10-26T01:38:24;1.80;;;1.33;;
12921;SDS011;6528;48.086;16.282;2022-10-26T01:43:47;1.67;;;1.30;;
12921;SDS011;6528;48.086;16.282;2022-10-26T01:46:19;1.40;;;1.30;;
12921;SDS011;6528;48.086;16.282;2022-10-26T01:48:49;1.33;;;1.23;;
12921;SDS011;6528;48.086;16.282;2022-10-26T01:51:20;1.57;;;1.40;;
12921;SDS011;6528;48.086;16.282;2022-10-26T01:53:48;1.47;;;1.37;;
12921;SDS011;6528;48.086;16.282;2022-10-26T01:56:17;1.40;;;1.30;;
12921;SDS011;6528;48.086;16.282;2022-10-26T02:07:46;1.80;;;1.30;;
12921;SDS011;6528;48.086;16.282;2022-10-26T02:13:20;1.23;;;1.23;;
12921;SDS011;6528;48.086;16.282;2022-10-26T02:16:40;1.40;;;1.30;;
12921;SDS011;6528;48.086;16.282;2022-10-26T02:21:49;1.67;;;1.40;;
12921;SDS011;6528;48.086;16.282;2022-10-26T02:24:19;1.23;;;1.10;;
12921;SDS011;6528;48.086;16.282;2022-10-26T02:26:48;1.30;;;1.20;;
12921;SDS011;6528;48.086;16.282;2022-10-26T02:29:18;1.40;;;1.30;;
12921;SDS011;6528;48.086;16.282;2022-10-26T02:31:45;0.80;;;0.80;;
12921;SDS011;6528;48.086;16.282;2022-10-26T02:34:15;0.80;;;0.80;;
12921;SDS011;6528;48.086;16.282;2022-10-26T02:36:46;2.30;;;1.07;;
12921;SDS011;6528;48.086;16.282;2022-10-26T02:39:14;1.27;;;1.20;;
12921;SDS011;6528;48.086;16.282;2022-10-26T02:41:43;0.90;;;0.90;;
12921;SDS011;6528;48.086;16.282;2022-10-26T02:44:15;1.37;;;1.00;;
12921;SDS011;6528;48.086;16.282;2022-10-26T02:46:49;1.47;;;1.10;;
12921;SDS011;6528;48.086;16.282;2022-10-26T02:49:18;0.87;;;0.87;;
12921;SDS011;6528;48.086;16.282;2022-10-26T02:51:49;1.03;;;1.00;;
12921;SDS011;6528;48.086;16.282;2022-10-26T02:54:48;1.00;;;1.00;;
12921;SDS011;6528;48.086;16.282;2022-10-26T02:57:38;0.77;;;0.77;;
12921;SDS011;6528;48.086;16.282;2022-10-26T03:00:11;1.00;;;0.73;;
12921;SDS011;6528;48.086;16.282;2022-10-26T03:02:42;1.43;;;1.10;;
12921;SDS011;6528;48.086;16.282;2022-10-26T03:05:20;1.23;;;0.80;;
12921;SDS011;6528;48.086;16.282;2022-10-26T03:07:50;1.53;;;1.40;;
12921;SDS011;6528;48.086;16.282;2022-10-26T03:13:36;1.20;;;1.03;;
12921;SDS011;6528;48.086;16.282;2022-10-26T03:16:03;2.30;;;1.23;;
12921;SDS011;6528;48.086;16.282;2022-10-26T03:18:30;0.90;;;0.90;;
12921;SDS011;6528;48.086;16.282;2022-10-26T03:20:57;1.23;;;1.00;;
12921;SDS011;6528;48.086;16.282;2022-10-26T03:23:23;1.03;;;0.93;;
12921;SDS011;6528;48.086;16.282;2022-10-26T03:25:50;1.00;;;1.00;;
12921;SDS011;6528;48.086;16.282;2022-10-26T03:28:17;1.20;;;1.20;;
12921;SDS011;6528;48.086;16.282;2022-10-26T03:30:43;1.90;;;1.23;;
12921;SDS011;6528;48.086;16.282;2022-10-26T03:33:10;0.80;;;0.70;;
12921;SDS011;6528;48.086;16.282;2022-10-26T03:35:37;0.90;;;0.90;;
12921;SDS011;6528;48.086;16.282;2022-10-26T03:38:04;0.90;;;0.90;;
12921;SDS011;6528;48.086;16.282;2022-10-26T03:40:30;0.80;;;0.77;;
12921;SDS011;6528;48.086;16.282;2022-10-26T03:42:57;1.20;;;1.10;;
12921;SDS011;6528;48.086;16.282;2022-10-26T03:45:24;1.27;;;1.23;;
12921;SDS011;6528;48.086;16.282;2022-10-26T03:47:50;1.13;;;1.00;;
12921;SDS011;6528;48.086;16.282;2022-10-26T03:50:19;1.17;;;1.07;;
12921;SDS011;6528;48.086;16.282;2022-10-26T03:52:47;2.50;;;1.00;;
12921;SDS011;6528;48.086;16.282;2022-10-26T03:55:15;0.90;;;0.90;;
12921;SDS011;6528;48.086;16.282;2022-10-26T03:57:42;1.47;;;1.10;;
12921;SDS011;6528;48.086;16.282;2022-10-26T04:00:11;1.40;;;1.30;;
12921;SDS011;6528;48.086;16.282;2022-10-26T04:02:43;1.17;;;0.90;;
12921;SDS011;6528;48.086;16.282;2022-10-26T04:05:15;1.90;;;1.27;;
12921;SDS011;6528;48.086;16.282;2022-10-26T04:07:42;3.53;;;1.53;;
12921;SDS011;6528;48.086;16.282;2022-10-26T04:10:09;1.70;;;1.20;;
12921;SDS011;6528;48.086;16.282;2022-10-26T04:12:36;1.33;;;1.07;;
12921;SDS011;6528;48.086;16.282;2022-10-26T04:15:04;0.80;;;0.80;;
12921;SDS011;6528;48.086;16.282;2022-10-26T04:17:32;0.87;;;0.87;;
12921;SDS011;6528;48.086;16.282;2022-10-26T04:19:59;1.00;;;0.90;;
12921;SDS011;6528;48.086;16.282;2022-10-26T04:22:26;1.00;;;0.90;;
12921;SDS011;6528;48.086;16.282;2022-10-26T04:24:53;1.70;;;1.20;;
12921;SDS011;6528;48.086;16.282;2022-10-26T04:27:20;1.03;;;1.03;;
12921;SDS011;6528;48.086;16.282;2022-10-26T04:29:47;1.63;;;0.90;;
12921;SDS011;6528;48.086;16.282;2022-10-26T04:32:13;1.97;;;1.00;;
12921;SDS011;6528;48.086;16.282;2022-10-26T04:34:40;1.00;;;1.00;;
12921;SDS011;6528;48.086;16.282;2022-10-26T04:37:07;0.97;;;0.97;;
12921;SDS011;6528;48.086;16.282;2022-10-26T04:39:34;1.17;;;0.93;;
12921;SDS011;6528;48.086;16.282;2022-10-26T04:42:00;1.10;;;1.00;;
12921;SDS011;6528;48.086;16.282;2022-10-26T04:44:27;0.90;;;0.90;;
12921;SDS011;6528;48.086;16.282;2022-10-26T04:46:54;1.47;;;1.20;;
12921;SDS011;6528;48.086;16.282;2022-10-26T04:49:21;0.93;;;0.93;;
12921;SDS011;6528;48.086;16.282;2022-10-26T04:51:47;1.10;;;1.10;;
12921;SDS011;6528;48.086;16.282;2022-10-26T04:54:14;1.10;;;1.10;;
12921;SDS011;6528;48.086;16.282;2022-10-26T04:56:41;0.90;;;0.90;;
12921;SDS011;6528;48.086;16.282;2022-10-26T04:59:08;2.10;;;1.20;;
12921;SDS011;6528;48.086;16.282;2022-10-26T05:01:35;1.00;;;0.97;;
12921;SDS011;6528;48.086;16.282;2022-10-26T05:04:02;1.90;;;0.90;;
12921;SDS011;6528;48.086;16.282;2022-10-26T05:06:28;2.70;;;1.20;;
12921;SDS011;6528;48.086;16.282;2022-10-26T05:08:55;0.90;;;0.90;;
12921;SDS011;6528;48.086;16.282;2022-10-26T05:11:22;0.90;;;0.90;;
12921;SDS011;6528;48.086;16.282;2022-10-26T05:13:49;1.13;;;1.00;;
12921;SDS011;6528;48.086;16.282;2022-10-26T05:16:15;0.80;;;0.80;;
12921;SDS011;6528;48.086;16.282;2022-10-26T05:18:42;0.80;;;0.80;;
12921;SDS011;6528;48.086;16.282;2022-10-26T05:21:09;1.30;;;1.20;;
12921;SDS011;6528;48.086;16.282;2022-10-26T05:23:37;1.00;;;1.00;;
12921;SDS011;6528;48.086;16.282;2022-10-26T05:26:04;0.97;;;0.97;;
12921;SDS011;6528;48.086;16.282;2022-10-26T05:28:31;0.90;;;0.90;;
12921;SDS011;6528;48.086;16.282;2022-10-26T05:30:57;0.90;;;0.90;;
12921;SDS011;6528;48.086;16.282;2022-10-26T05:33:25;1.43;;;0.90;;
12921;SDS011;6528;48.086;16.282;2022-10-26T05:35:54;0.73;;;0.73;;
12921;SDS011;6528;48.086;16.282;2022-10-26T05:38:21;1.17;;;1.00;;
12921;SDS011;6528;48.086;16.282;2022-10-26T05:43:15;0.90;;;0.90;;
12921;SDS011;6528;48.086;16.282;2022-10-26T05:45:42;1.00;;;1.00;;
12921;SDS011;6528;48.086;16.282;2022-10-26T05:48:09;1.80;;;0.83;;
12921;SDS011;6528;48.086;16.282;2022-10-26T05:50:36;1.50;;;1.10;;
12921;SDS011;6528;48.086;16.282;2022-10-26T05:53:03;1.10;;;1.00;;
12921;SDS011;6528;48.086;16.282;2022-10-26T05:55:30;1.30;;;1.20;;
12921;SDS011;6528;48.086;16.282;2022-10-26T05:57:57;0.90;;;0.90;;
12921;SDS011;6528;48.086;16.282;2022-10-26T06:00:25;1.13;;;1.03;;
12921;SDS011;6528;48.086;16.282;2022-10-26T06:05:27;1.00;;;0.97;;
12921;SDS011;6528;48.086;16.282;2022-10-26T06:07:55;2.20;;;1.10;;
12921;SDS011;6528;48.086;16.282;2022-10-26T06:10:22;0.90;;;0.90;;
12921;SDS011;6528;48.086;16.282;2022-10-26T06:12:49;0.90;;;0.90;;
12921;SDS011;6528;48.086;16.282;2022-10-26T06:15:18;1.60;;;1.37;;
12921;SDS011;6528;48.086;16.282;2022-10-26T06:18:04;2.80;;;1.57;;
12921;SDS011;6528;48.086;16.282;2022-10-26T06:20:57;1.63;;;1.50;;
12921;SDS011;6528;48.086;16.282;2022-10-26T06:28:52;1.90;;;1.60;;
12921;SDS011;6528;48.086;16.282;2022-10-26T06:31:26;2.70;;;2.07;;
12921;SDS011;6528;48.086;16.282;2022-10-26T06:33:54;2.10;;;2.00;;
12921;SDS011;6528;48.086;16.282;2022-10-26T06:36:25;3.50;;;3.20;;
12921;SDS011;6528;48.086;16.282;2022-10-26T06:38:54;4.30;;;3.93;;
12921;SDS011;6528;48.086;16.282;2022-10-26T06:41:26;5.47;;;4.97;;
12921;SDS011;6528;48.086;16.282;2022-10-26T06:43:56;6.90;;;6.30;;
12921;SDS011;6528;48.086;16.282;2022-10-26T06:46:35;7.80;;;7.00;;
12921;SDS011;6528;48.086;16.282;2022-10-26T06:49:19;6.73;;;6.13;;
12921;SDS011;6528;48.086;16.282;2022-10-26T06:54:30;5.43;;;4.93;;
12921;SDS011;6528;48.086;16.282;2022-10-26T06:57:11;5.80;;;4.57;;
12921;SDS011;6528;48.086;16.282;2022-10-26T07:02:25;4.63;;;3.37;;
12921;SDS011;6528;48.086;16.282;2022-10-26T07:04:52;4.93;;;3.83;;
12921;SDS011;6528;48.086;16.282;2022-10-26T07:07:20;3.60;;;3.30;;
12921;SDS011;6528;48.086;16.282;2022-10-26T07:09:48;4.33;;;3.93;;
12921;SDS011;6528;48.086;16.282;2022-10-26T07:12:15;3.17;;;2.97;;
12921;SDS011;6528;48.086;16.282;2022-10-26T07:14:42;5.03;;;3.50;;
12921;SDS011;6528;48.086;16.282;2022-10-26T07:17:09;3.77;;;3.47;;
12921;SDS011;6528;48.086;16.282;2022-10-26T07:19:36;6.70;;;3.23;;
12921;SDS011;6528;48.086;16.282;2022-10-26T07:22:05;2.87;;;2.57;;
12921;SDS011;6528;48.086;16.282;2022-10-26T07:24:32;3.50;;;3.10;;
12921;SDS011;6528;48.086;16.282;2022-10-26T07:26:58;3.20;;;2.90;;
12921;SDS011;6528;48.086;16.282;2022-10-26T07:29:25;4.10;;;3.70;;
12921;SDS011;6528;48.086;16.282;2022-10-26T07:31:53;3.10;;;2.80;;
12921;SDS011;6528;48.086;16.282;2022-10-26T07:34:25;4.23;;;3.40;;
12921;SDS011;6528;48.086;16.282;2022-10-26T07:36:51;3.87;;;3.53;;
12921;SDS011;6528;48.086;16.282;2022-10-26T07:39:18;4.00;;;3.60;;
12921;SDS011;6528;48.086;16.282;2022-10-26T07:41:45;4.83;;;4.00;;
12921;SDS011;6528;48.086;16.282;2022-10-26T07:44:12;4.00;;;3.70;;
12921;SDS011;6528;48.086;16.282;2022-10-26T07:46:39;3.63;;;3.33;;
12921;SDS011;6528;48.086;16.282;2022-10-26T07:49:05;3.10;;;2.90;;
12921;SDS011;6528;48.086;16.282;2022-10-26T07:51:32;5.43;;;4.17;;
12921;SDS011;6528;48.086;16.282;2022-10-26T07:53:59;3.97;;;3.40;;
12921;SDS011;6528;48.086;16.282;2022-10-26T07:56:25;3.47;;;3.23;;
12921;SDS011;6528;48.086;16.282;2022-10-26T07:58:54;3.70;;;3.30;;
12921;SDS011;6528;48.086;16.282;2022-10-26T08:01:21;3.47;;;3.17;;
12921;SDS011;6528;48.086;16.282;2022-10-26T08:03:50;4.10;;;3.30;;
12921;SDS011;6528;48.086;16.282;2022-10-26T08:06:18;4.30;;;3.90;;
12921;SDS011;6528;48.086;16.282;2022-10-26T08:08:48;3.63;;;3.33;;
12921;SDS011;6528;48.086;16.282;2022-10-26T08:11:16;4.63;;;3.97;;
12921;SDS011;6528;48.086;16.282;2022-10-26T08:13:43;3.90;;;3.60;;
12921;SDS011;6528;48.086;16.282;2022-10-26T08:16:10;4.83;;;4.33;;
12921;SDS011;6528;48.086;16.282;2022-10-26T08:18:37;3.87;;;3.50;;
12921;SDS011;6528;48.086;16.282;2022-10-26T08:21:05;3.77;;;3.47;;
12921;SDS011;6528;48.086;16.282;2022-10-26T08:23:38;3.47;;;3.20;;
12921;SDS011;6528;48.086;16.282;2022-10-26T08:26:06;5.50;;;4.10;;
12921;SDS011;6528;48.086;16.282;2022-10-26T08:28:36;3.93;;;3.53;;
12921;SDS011;6528;48.086;16.282;2022-10-26T08:31:04;3.33;;;3.13;;
12921;SDS011;6528;48.086;16.282;2022-10-26T08:33:31;5.53;;;3.50;;
12921;SDS011;6528;48.086;16.282;2022-10-26T08:35:59;4.87;;;3.83;;
12921;SDS011;6528;48.086;16.282;2022-10-26T08:38:27;4.20;;;3.80;;
12921;SDS011;6528;48.086;16.282;2022-10-26T08:40:55;4.03;;;3.50;;
12921;SDS011;6528;48.086;16.282;2022-10-26T08:43:37;4.00;;;3.63;;
12921;SDS011;6528;48.086;16.282;2022-10-26T08:46:12;4.53;;;3.97;;
12921;SDS011;6528;48.086;16.282;2022-10-26T08:48:59;3.57;;;3.27;;
12921;SDS011;6528;48.086;16.282;2022-10-26T08:51:35;6.17;;;4.10;;
12921;SDS011;6528;48.086;16.282;2022-10-26T08:54:11;4.23;;;3.83;;
12921;SDS011;6528;48.086;16.282;2022-10-26T08:59:39;5.90;;;3.90;;
12921;SDS011;6528;48.086;16.282;2022-10-26T09:02:13;4.27;;;3.73;;
12921;SDS011;6528;48.086;16.282;2022-10-26T09:04:41;4.90;;;4.10;;
12921;SDS011;6528;48.086;16.282;2022-10-26T09:07:22;4.90;;;4.50;;
12921;SDS011;6528;48.086;16.282;2022-10-26T09:13:45;4.20;;;3.80;;
12921;SDS011;6528;48.086;16.282;2022-10-26T09:16:22;5.87;;;3.87;;
12921;SDS011;6528;48.086;16.282;2022-10-26T09:21:58;5.20;;;4.70;;
12921;SDS011;6528;48.086;16.282;2022-10-26T09:25:03;6.70;;;4.20;;
12921;SDS011;6528;48.086;16.282;2022-10-26T09:27:42;4.70;;;4.27;;
12921;SDS011;6528;48.086;16.282;2022-10-26T09:30:18;5.83;;;4.87;;
12921;SDS011;6528;48.086;16.282;2022-10-26T09:32:47;5.13;;;4.63;;
12921;SDS011;6528;48.086;16.282;2022-10-26T09:35:17;4.73;;;4.33;;
12921;SDS011;6528;48.086;16.282;2022-10-26T09:38:33;6.50;;;5.20;;
12921;SDS011;6528;48.086;16.282;2022-10-26T09:40:55;4.77;;;4.33;;
12921;SDS011;6528;48.086;16.282;2022-10-26T09:43:36;5.17;;;4.67;;
12921;SDS011;6528;48.086;16.282;2022-10-26T09:46:18;5.83;;;5.00;;
12921;SDS011;6528;48.086;16.282;2022-10-26T09:48:50;8.37;;;5.80;;
12921;SDS011;6528;48.086;16.282;2022-10-26T09:51:21;6.47;;;5.87;;
12921;SDS011;6528;48.086;16.282;2022-10-26T09:53:52;6.67;;;5.80;;
12921;SDS011;6528;48.086;16.282;2022-10-26T09:56:21;8.30;;;5.40;;
12921;SDS011;6528;48.086;16.282;2022-10-26T09:58:53;7.50;;;5.40;;
12921;SDS011;6528;48.086;16.282;2022-10-26T10:06:51;8.37;;;6.10;;
12921;SDS011;6528;48.086;16.282;2022-10-26T10:09:38;7.27;;;6.17;;
12921;SDS011;6528;48.086;16.282;2022-10-26T10:12:04;8.70;;;5.60;;
12921;SDS011;6528;48.086;16.282;2022-10-26T10:14:53;6.07;;;5.40;;
12921;SDS011;6528;48.086;16.282;2022-10-26T10:17:22;7.63;;;5.67;;
12921;SDS011;6528;48.086;16.282;2022-10-26T10:19:49;7.97;;;7.10;;
12921;SDS011;6528;48.086;16.282;2022-10-26T10:22:23;7.73;;;7.03;;
12921;SDS011;6528;48.086;16.282;2022-10-26T10:25:00;8.50;;;7.40;;
12921;SDS011;6528;48.086;16.282;2022-10-26T10:27:29;9.60;;;8.00;;
12921;SDS011;6528;48.086;16.282;2022-10-26T10:30:14;12.07;;;7.73;;
12921;SDS011;6528;48.086;16.282;2022-10-26T10:33:05;9.27;;;7.77;;
12921;SDS011;6528;48.086;16.282;2022-10-26T10:35:36;8.93;;;8.03;;
12921;SDS011;6528;48.086;16.282;2022-10-26T10:38:14;9.87;;;7.30;;
12921;SDS011;6528;48.086;16.282;2022-10-26T10:40:50;8.23;;;7.50;;
12921;SDS011;6528;48.086;16.282;2022-10-26T10:43:23;8.97;;;8.07;;
12921;SDS011;6528;48.086;16.282;2022-10-26T10:45:51;8.80;;;7.90;;
12921;SDS011;6528;48.086;16.282;2022-10-26T10:48:25;7.80;;;7.10;;
12921;SDS011;6528;48.086;16.282;2022-10-26T10:51:03;7.70;;;6.97;;
12921;SDS011;6528;48.086;16.282;2022-10-26T10:53:45;7.87;;;7.13;;
12921;SDS011;6528;48.086;16.282;2022-10-26T11:04:47;7.60;;;6.80;;
12921;SDS011;6528;48.086;16.282;2022-10-26T11:07:31;7.60;;;6.83;;
12921;SDS011;6528;48.086;16.282;2022-10-26T11:10:07;7.10;;;6.50;;
12921;SDS011;6528;48.086;16.282;2022-10-26T11:12:44;6.73;;;6.13;;
12921;SDS011;6528;48.086;16.282;2022-10-26T11:15:32;7.23;;;6.53;;
12921;SDS011;6528;48.086;16.282;2022-10-26T11:18:07;7.07;;;6.47;;
12921;SDS011;6528;48.086;16.282;2022-10-26T11:20:47;7.20;;;6.60;;
12921;SDS011;6528;48.086;16.282;2022-10-26T11:23:22;8.00;;;7.20;;
12921;SDS011;6528;48.086;16.282;2022-10-26T11:26:03;7.67;;;6.97;;
12921;SDS011;6528;48.086;16.282;2022-10-26T11:31:17;8.33;;;6.93;;
12921;SDS011;6528;48.086;16.282;2022-10-26T11:34:11;8.37;;;7.20;;
12921;SDS011;6528;48.086;16.282;2022-10-26T11:36:46;7.30;;;6.60;;
12921;SDS011;6528;48.086;16.282;2022-10-26T11:39:37;8.20;;;7.50;;
12921;SDS011;6528;48.086;16.282;2022-10-26T11:42:21;7.67;;;6.90;;
12921;SDS011;6528;48.086;16.282;2022-10-26T11:50:26;7.90;;;7.20;;
12921;SDS011;6528;48.086;16.282;2022-10-26T11:52:53;8.13;;;7.13;;
12921;SDS011;6528;48.086;16.282;2022-10-26T11:55:40;9.87;;;6.90;;
12921;SDS011;6528;48.086;16.282;2022-10-26T11:58:09;7.43;;;6.73;;
12921;SDS011;6528;48.086;16.282;2022-10-26T12:00:48;7.27;;;6.63;;
12921;SDS011;6528;48.086;16.282;2022-10-26T12:03:31;7.80;;;7.00;;
12921;SDS011;6528;48.086;16.282;2022-10-26T12:06:01;9.90;;;7.10;;
12921;SDS011;6528;48.086;16.282;2022-10-26T12:13:56;7.77;;;7.07;;
12921;SDS011;6528;48.086;16.282;2022-10-26T12:21:47;7.10;;;6.50;;
12921;SDS011;6528;48.086;16.282;2022-10-26T12:27:01;10.33;;;9.33;;
12921;SDS011;6528;48.086;16.282;2022-10-26T12:29:37;14.77;;;12.40;;
12921;SDS011;6528;48.086;16.282;2022-10-26T12:34:56;17.00;;;14.87;;
12921;SDS011;6528;48.086;16.282;2022-10-26T12:45:44;18.70;;;15.93;;
12921;SDS011;6528;48.086;16.282;2022-10-26T12:48:37;14.73;;;13.23;;
12921;SDS011;6528;48.086;16.282;2022-10-26T12:56:31;15.73;;;14.10;;
12921;SDS011;6528;48.086;16.282;2022-10-26T13:07:45;16.53;;;13.47;;
12921;SDS011;6528;48.086;16.282;2022-10-26T13:12:50;12.20;;;10.90;;
12921;SDS011;6528;48.086;16.282;2022-10-26T13:15:22;15.20;;;12.17;;
12921;SDS011;6528;48.086;16.282;2022-10-26T13:20:25;13.23;;;10.63;;
12921;SDS011;6528;48.086;16.282;2022-10-26T13:22:54;12.40;;;11.20;;
12921;SDS011;6528;48.086;16.282;2022-10-26T13:28:05;11.50;;;10.40;;
12921;SDS011;6528;48.086;16.282;2022-10-26T13:30:52;12.20;;;9.90;;
12921;SDS011;6528;48.086;16.282;2022-10-26T13:33:20;12.33;;;11.00;;
12921;SDS011;6528;48.086;16.282;2022-10-26T13:35:50;12.97;;;11.60;;
12921;SDS011;6528;48.086;16.282;2022-10-26T13:38:19;11.60;;;10.43;;
12921;SDS011;6528;48.086;16.282;2022-10-26T13:40:50;11.73;;;10.53;;
12921;SDS011;6528;48.086;16.282;2022-10-26T13:43:23;10.50;;;9.40;;
12921;SDS011;6528;48.086;16.282;2022-10-26T13:45:53;11.53;;;10.30;;
12921;SDS011;6528;48.086;16.282;2022-10-26T13:48:22;11.57;;;10.17;;
12921;SDS011;6528;48.086;16.282;2022-10-26T13:51:02;11.07;;;9.87;;
12921;SDS011;6528;48.086;16.282;2022-10-26T13:57:00;10.83;;;9.73;;
12921;SDS011;6528;48.086;16.282;2022-10-26T13:59:52;11.10;;;10.00;;
12921;SDS011;6528;48.086;16.282;2022-10-26T14:02:28;11.20;;;9.10;;
12921;SDS011;6528;48.086;16.282;2022-10-26T14:04:59;9.83;;;8.83;;
12921;SDS011;6528;48.086;16.282;2022-10-26T14:07:30;9.40;;;8.50;;
12921;SDS011;6528;48.086;16.282;2022-10-26T14:09:59;10.83;;;9.70;;
12921;SDS011;6528;48.086;16.282;2022-10-26T14:12:26;10.97;;;9.87;;
12921;SDS011;6528;48.086;16.282;2022-10-26T14:14:56;10.20;;;9.30;;
12921;SDS011;6528;48.086;16.282;2022-10-26T14:17:32;10.43;;;9.30;;
12921;SDS011;6528;48.086;16.282;2022-10-26T14:19:58;10.53;;;9.23;;
12921;SDS011;6528;48.086;16.282;2022-10-26T14:22:26;11.23;;;9.00;;
12921;SDS011;6528;48.086;16.282;2022-10-26T14:24:56;10.37;;;9.30;;
12921;SDS011;6528;48.086;16.282;2022-10-26T14:27:31;9.80;;;8.90;;
12921;SDS011;6528;48.086;16.282;2022-10-26T14:30:15;10.50;;;9.50;;
12921;SDS011;6528;48.086;16.282;2022-10-26T14:32:50;10.50;;;9.40;;
12921;SDS011;6528;48.086;16.282;2022-10-26T14:35:20;9.97;;;9.10;;
12921;SDS011;6528;48.086;16.282;2022-10-26T14:37:51;9.80;;;8.80;;
12921;SDS011;6528;48.086;16.282;2022-10-26T14:40:23;9.87;;;8.90;;
12921;SDS011;6528;48.086;16.282;2022-10-26T14:42:53;11.13;;;10.03;;
12921;SDS011;6528;48.086;16.282;2022-10-26T14:48:26;11.20;;;9.30;;
12921;SDS011;6528;48.086;16.282;2022-10-26T14:50:58;9.67;;;8.77;;
12921;SDS011;6528;48.086;16.282;2022-10-26T14:53:36;9.83;;;8.83;;
12921;SDS011;6528;48.086;16.282;2022-10-26T14:56:05;10.33;;;9.37;;
12921;SDS011;6528;48.086;16.282;2022-10-26T14:58:57;10.17;;;9.17;;
12921;SDS011;6528;48.086;16.282;2022-10-26T15:01:25;9.83;;;8.93;;
12921;SDS011;6528;48.086;16.282;2022-10-26T15:04:03;10.40;;;9.40;;
12921;SDS011;6528;48.086;16.282;2022-10-26T15:06:32;9.23;;;8.40;;
12921;SDS011;6528;48.086;16.282;2022-10-26T15:09:03;10.00;;;9.07;;
12921;SDS011;6528;48.086;16.282;2022-10-26T15:11:32;8.87;;;8.17;;
12921;SDS011;6528;48.086;16.282;2022-10-26T15:14:00;8.87;;;8.07;;
12921;SDS011;6528;48.086;16.282;2022-10-26T15:16:28;9.23;;;8.43;;
12921;SDS011;6528;48.086;16.282;2022-10-26T15:19:07;9.57;;;8.73;;
12921;SDS011;6528;48.086;16.282;2022-10-26T15:21:37;10.57;;;9.57;;
12921;SDS011;6528;48.086;16.282;2022-10-26T15:26:46;10.40;;;9.40;;
12921;SDS011;6528;48.086;16.282;2022-10-26T15:29:32;10.83;;;9.90;;
12921;SDS011;6528;48.086;16.282;2022-10-26T15:32:18;9.47;;;8.57;;
12921;SDS011;6528;48.086;16.282;2022-10-26T15:35:10;10.47;;;9.47;;
12921;SDS011;6528;48.086;16.282;2022-10-26T15:37:37;9.70;;;8.80;;
12921;SDS011;6528;48.086;16.282;2022-10-26T15:40:05;10.57;;;9.57;;
12921;SDS011;6528;48.086;16.282;2022-10-26T15:42:34;8.93;;;8.13;;
12921;SDS011;6528;48.086;16.282;2022-10-26T15:45:03;9.83;;;8.97;;
12921;SDS011;6528;48.086;16.282;2022-10-26T15:47:39;9.20;;;8.40;;
12921;SDS011;6528;48.086;16.282;2022-10-26T15:50:10;9.23;;;8.50;;
12921;SDS011;6528;48.086;16.282;2022-10-26T15:52:38;11.50;;;10.30;;
12921;SDS011;6528;48.086;16.282;2022-10-26T15:55:05;10.77;;;9.83;;
12921;SDS011;6528;48.086;16.282;2022-10-26T15:57:32;10.27;;;9.37;;
12921;SDS011;6528;48.086;16.282;2022-10-26T15:59:58;10.50;;;9.60;;
12921;SDS011;6528;48.086;16.282;2022-10-26T16:02:25;9.23;;;8.43;;
12921;SDS011;6528;48.086;16.282;2022-10-26T16:04:53;9.80;;;8.90;;
12921;SDS011;6528;48.086;16.282;2022-10-26T16:07:21;11.03;;;9.90;;
12921;SDS011;6528;48.086;16.282;2022-10-26T16:09:52;10.43;;;9.53;;
12921;SDS011;6528;48.086;16.282;2022-10-26T16:12:19;11.23;;;10.23;;
12921;SDS011;6528;48.086;16.282;2022-10-26T16:14:46;11.97;;;10.87;;
12921;SDS011;6528;48.086;16.282;2022-10-26T16:17:30;10.77;;;9.77;;
12921;SDS011;6528;48.086;16.282;2022-10-26T16:19:58;9.93;;;9.03;;
12921;SDS011;6528;48.086;16.282;2022-10-26T16:22:28;9.50;;;8.70;;
12921;SDS011;6528;48.086;16.282;2022-10-26T16:24:57;10.17;;;9.20;;
12921;SDS011;6528;48.086;16.282;2022-10-26T16:27:24;11.47;;;10.40;;
12921;SDS011;6528;48.086;16.282;2022-10-26T16:29:51;10.10;;;9.20;;
12921;SDS011;6528;48.086;16.282;2022-10-26T16:32:17;10.00;;;9.03;;
12921;SDS011;6528;48.086;16.282;2022-10-26T16:34:44;10.40;;;9.40;;
12921;SDS011;6528;48.086;16.282;2022-10-26T16:37:11;11.80;;;10.80;;
12921;SDS011;6528;48.086;16.282;2022-10-26T16:39:38;10.83;;;9.90;;
12921;SDS011;6528;48.086;16.282;2022-10-26T16:42:04;10.23;;;9.40;;
12921;SDS011;6528;48.086;16.282;2022-10-26T16:44:31;10.00;;;9.20;;
12921;SDS011;6528;48.086;16.282;2022-10-26T16:46:58;9.03;;;8.23;;
12921;SDS011;6528;48.086;16.282;2022-10-26T16:49:25;10.10;;;9.20;;
12921;SDS011;6528;48.086;16.282;2022-10-26T16:51:52;11.27;;;10.20;;
12921;SDS011;6528;48.086;16.282;2022-10-26T16:54:18;9.57;;;8.77;;
12921;SDS011;6528;48.086;16.282;2022-10-26T16:56:45;10.23;;;9.33;;
12921;SDS011;6528;48.086;16.282;2022-10-26T16:59:12;10.10;;;9.30;;
12921;SDS011;6528;48.086;16.282;2022-10-26T17:01:38;9.83;;;9.03;;
12921;SDS011;6528;48.086;16.282;2022-10-26T17:04:05;10.47;;;9.67;;
12921;SDS011;6528;48.086;16.282;2022-10-26T17:06:32;10.03;;;9.23;;
12921;SDS011;6528;48.086;16.282;2022-10-26T17:08:59;10.00;;;9.10;;
12921;SDS011;6528;48.086;16.282;2022-10-26T17:11:26;11.10;;;10.07;;
12921;SDS011;6528;48.086;16.282;2022-10-26T17:13:53;10.57;;;9.77;;
12921;SDS011;6528;48.086;16.282;2022-10-26T17:16:21;10.50;;;9.40;;
12921;SDS011;6528;48.086;16.282;2022-10-26T17:18:49;11.77;;;10.67;;
12921;SDS011;6528;48.086;16.282;2022-10-26T17:21:17;10.20;;;9.40;;
12921;SDS011;6528;48.086;16.282;2022-10-26T17:23:45;10.43;;;9.53;;
12921;SDS011;6528;48.086;16.282;2022-10-26T17:26:12;10.00;;;9.20;;